Latest Weather Observations for Marble Bar

IDW60801

Issued at 10:23 pm WST Monday 25 January 2021 (issued every 10 minutes, with the page automatically refreshed every 10 minutes)

About weather observations | Map of weather stations | Latest weather observations for WA | Other Formats
Station Details ID: 004106 Name: MARBLE BAR Lat: -21.18 Lon: 119.75 Height: 182.3 m
Data from the previous 72 hours. | See also: Recent months at Marble Bar
Date/Time
WST
Temp
°C
App
Temp
°C
Dew
Point
°C
Rel
Hum
%
Delta-T
°C
Wind Press
QNH
hPa
Press
MSL
hPa
Rain since
9am
mm
Dir  Spd
km/h
Gust
km/h
Spd
kts
Gust
kts
25/10:00pm 31.4 29.2 14.5 35 10.4 WNW 19 28 10 15 1003.2 1001.6 0.0
25/09:30pm 32.4 29.7 13.6 32 11.4 NW 20 32 11 17 1003.2 1001.6 0.0
25/09:00pm 33.4 29.9 13.5 30 12.2 WNW 24 33 13 18 1002.8 1001.2 0.0
25/08:30pm 33.9 32.8 10.5 24 13.7 NW 7 20 4 11 1002.3 1000.7 0.0
25/08:00pm 33.2 32.7 7.9 21 14.2 CALM 0 2 0 1 1001.9 1000.3 0.0
25/07:30pm 35.0 33.0 4.5 15 16.3 W 4 6 2 3 1001.6 1000.0 0.0
25/07:00pm 36.6 34.5 3.7 13 17.6 WSW 4 7 2 4 1001.4 999.8 0.0
25/06:30pm 38.6 35.5 1.6 10 19.3 WSW 7 11 4 6 1001.0 999.4 0.0
25/06:00pm 39.8 37.1 2.5 10 19.9 WSW 6 13 3 7 1000.7 999.1 0.0
25/05:30pm 40.1 35.8 1.2 9 20.3 SSW 13 20 7 11 1000.7 999.1 0.0
25/05:00pm 40.3 36.1 1.4 9 20.5 SW 13 22 7 12 1000.7 999.1 0.0
25/04:30pm 40.3 36.8 1.4 9 20.4 W 9 19 5 10 1000.7 999.1 0.0
25/04:00pm 40.2 36.3 1.3 9 20.5 W 11 20 6 11 1000.7 999.1 0.0
25/03:30pm 40.4 37.3 1.4 9 20.5 SW 7 13 4 7 1000.9 999.3 0.0
25/03:00pm 40.8 37.4 1.7 9 20.8 WSW 9 20 5 11 1001.2 999.6 0.0
25/02:30pm 40.5 37.9 3.0 10 20.2 WNW 6 19 3 10 1001.6 1000.0 0.0
25/02:00pm 41.5 38.2 2.3 9 21.1 NW 9 15 5 8 1002.1 1000.5 0.0
25/01:30pm 40.2 36.6 2.8 10 20.0 W 11 22 6 12 1002.4 1000.8 0.0
25/01:00pm 39.9 37.5 5.1 12 19.3 SSW 7 19 4 10 1002.6 1001.0 0.0
25/12:30pm 38.6 35.1 5.3 13 18.4 WSW 13 24 7 13 1003.1 1001.5 0.0
25/12:00pm 38.3 36.3 7.1 15 17.7 WSW 7 15 4 8 1003.3 1001.7 0.0
25/11:30am 38.1 35.9 7.9 16 17.3 WNW 9 15 5 8 1003.7 1002.1 0.0
25/11:00am 37.4 35.8 8.2 17 16.8 W 6 11 3 6 1004.1 1002.5 0.0
25/10:30am 36.6 34.1 8.4 18 16.1 SSW 11 19 6 10 1004.5 1002.9 0.0
25/10:00am 36.2 33.9 8.9 19 15.8 SSE 11 19 6 10 1004.7 1003.1 0.0
25/09:30am 35.7 33.5 9.3 20 15.3 SSW 11 20 6 11 1004.9 1003.3 0.0
25/09:00am 34.4 30.6 8.9 21 14.6 S 19 28 10 15 1005.2 1003.7 0.0
25/08:30am 33.9 30.3 8.5 21 14.4 S 17 24 9 13 1005.3 1003.8 0.0
25/08:00am 33.3 29.6 8.0 21 14.2 S 17 26 9 14 1005.3 1003.8 0.0
25/07:30am 32.5 28.8 8.0 22 13.7 S 17 24 9 13 1005.2 1003.7 0.0
25/07:00am 31.7 29.2 8.0 23 13.2 SSW 11 15 6 8 1005.2 1003.7 0.0
25/06:30am 30.3 28.8 9.2 27 11.9 SSW 7 11 4 6 1005.0 1003.5 0.0
25/06:00am 28.8 27.4 9.5 30 10.9 SW 7 9 4 5 1004.5 1002.9 0.0
25/05:30am 29.4 27.5 9.0 28 11.4 SW 9 11 5 6 1004.2 1002.6 0.0
25/05:00am 30.6 28.1 8.3 25 12.4 SW 11 17 6 9 1003.8 1002.2 0.0
25/04:30am 30.8 28.7 9.6 27 12.0 SW 11 19 6 10 1003.4 1001.8 0.0
25/04:00am 30.6 29.6 11.1 30 11.4 SW 7 11 4 6 1003.3 1001.7 0.0
25/03:30am 30.4 29.8 14.5 38 9.7 SW 11 15 6 8 1003.1 1001.5 0.0
25/03:00am 30.4 31.1 17.1 44 8.5 SW 9 11 5 6 1003.0 1001.4 0.0
25/02:30am 31.1 31.7 16.7 42 9.1 SW 9 13 5 7 1003.0 1001.4 0.0
25/02:00am 31.4 32.0 17.7 44 8.9 W 11 17 6 9 1003.0 1001.4 0.0
25/01:30am 31.8 31.2 18.4 45 8.7 W 19 26 10 14 1002.9 1001.3 0.0
25/01:00am 32.1 32.0 18.7 45 8.8 W 17 22 9 12 1002.9 1001.3 0.0
25/12:30am 32.3 33.0 18.8 44 8.8 WNW 13 17 7 9 1002.9 1001.3 0.0
25/12:00am 32.6 33.0 19.1 44 8.9 W 15 20 8 11 1002.9 1001.3 0.0
 
Date/Time
WST
Temp
°C
App
Temp
°C
Dew
Point
°C
Rel
Hum
%
Delta-T
°C
Wind Press
QNH
hPa
Press
MSL
hPa
Rain since
9am
mm
Dir  Spd
km/h
Gust
km/h
Spd
kts
Gust
kts
24/11:30pm 32.9 32.7 19.4 45 8.9 W 19 26 10 14 1002.9 1001.3 0.0
24/11:00pm 33.5 33.0 19.2 43 9.5 W 20 30 11 16 1002.9 1001.3 0.0
24/10:30pm 33.5 33.2 19.2 43 9.5 WNW 19 30 10 16 1003.1 1001.5 0.0
24/10:00pm 34.1 34.5 19.0 41 10.0 WNW 15 24 8 13 1003.1 1001.5 0.0
24/09:30pm 34.4 33.9 19.2 40 10.1 WNW 20 32 11 17 1002.8 1001.2 0.0
24/09:00pm 34.9 34.3 18.9 39 10.6 WNW 20 32 11 17 1002.5 1000.9 0.0
24/08:30pm 35.4 34.8 18.5 37 11.1 WNW 19 28 10 15 1002.3 1000.7 0.0
24/08:00pm 37.3 36.3 13.3 23 14.9 WNW 11 15 6 8 1001.9 1000.3 0.0
24/07:30pm 37.6 36.4 12.9 23 15.2 W 11 17 6 9 1001.6 1000.0 0.0
24/07:00pm 38.0 36.3 12.6 22 15.6 W 13 22 7 12 1001.5 999.9 0.0
24/06:30pm 38.7 37.4 12.5 21 16.1 W 11 20 6 11 1001.2 999.6 0.0
24/06:00pm 39.7 37.4 11.7 19 17.1 W 15 20 8 11 1001.0 999.4 0.0
24/05:30pm 40.4 37.3 11.5 18 17.6 W 19 28 10 15 1000.9 999.3 0.0
24/05:00pm 40.7 37.8 10.9 17 18.1 W 17 24 9 13 1000.9 999.3 0.0
24/04:30pm 40.8 38.1 11.8 18 17.7 WNW 17 28 9 15 1000.9 999.3 0.0
24/04:00pm 40.9 38.3 11.9 18 17.8 W 17 32 9 17 1001.1 999.5 0.0
24/03:30pm 41.4 39.7 12.3 18 18.0 WSW 13 24 7 13 1001.5 999.9 0.0
24/03:00pm 41.1 38.6 11.2 17 18.2 W 15 32 8 17 1001.8 1000.2 0.0
24/02:30pm 41.5 39.9 11.5 17 18.3 WNW 11 30 6 16 1002.1 1000.5 0.0
24/02:00pm 40.5 38.2 11.6 18 17.7 SW 15 30 8 16 1002.6 1001.0 0.0
24/01:30pm 40.0 37.9 11.2 18 17.4 W 13 26 7 14 1002.9 1001.3 0.0
24/01:00pm 39.7 37.8 11.7 19 17.1 WSW 13 24 7 13 1003.3 1001.7 0.0
24/12:30pm 39.4 37.9 10.7 18 17.2 W 9 19 5 10 1003.8 1002.2 0.0
24/12:00pm 39.6 36.6 10.8 18 17.3 W 17 35 9 19 1004.3 1002.7 0.0
24/11:30am 39.3 36.7 10.6 18 17.2 W 15 28 8 15 1004.8 1003.2 0.0
24/11:00am 38.7 36.7 10.1 18 17.0 WNW 11 20 6 11 1005.1 1003.6 0.0
24/10:30am 38.1 36.6 10.5 19 16.4 WSW 9 17 5 9 1005.4 1003.9 0.0
24/10:00am 37.3 35.6 11.3 21 15.6 SW 11 17 6 9 1005.6 1004.1 0.0
24/09:30am 36.0 35.0 10.9 22 14.9 WSW 7 15 4 8 1005.8 1004.3 0.0
24/09:00am 35.1 33.3 10.9 23 14.3 SW 11 17 6 9 1005.9 1004.4 0.0
24/08:30am 34.4 33.0 10.9 24 13.8 SSW 9 20 5 11 1005.9 1004.4 0.0
24/08:00am 33.4 32.1 11.3 26 13.1 SSW 9 13 5 7 1005.7 1004.2 0.0
24/07:30am 32.1 31.5 12.3 29 11.8 SSW 7 13 4 7 1005.6 1004.1 0.0
24/07:00am 30.6 30.2 12.5 33 10.8 SSE 6 9 3 5 1005.2 1003.7 0.0
24/06:30am 28.0 30.0 16.0 48 7.5 CALM 0 0 0 0 1004.8 1003.2 0.0
24/06:00am 24.3 25.7 15.5 58 5.4 WNW 2 4 1 2 1004.5 1002.9 0.0
24/05:30am 24.5 26.2 15.1 55 5.7 CALM 0 0 0 0 1003.9 1002.3 0.0
24/05:00am 24.9 26.8 15.8 57 5.6 CALM 0 0 0 0 1003.3 1001.7 0.0
24/04:30am 25.8 27.5 16.1 55 6.0 SSE 2 7 1 4 1003.0 1001.4 0.0
24/04:00am 27.6 29.2 14.9 45 7.8 CALM 0 4 0 2 1002.8 1001.2 0.0
24/03:30am 27.5 29.0 15.8 48 7.2 SSE 2 4 1 2 1002.6 1001.0 0.0
24/03:00am 28.0 30.0 16.9 51 7.0 SE 2 4 1 2 1002.6 1001.0 0.0
24/02:30am 29.4 30.6 16.9 47 7.9 SSW 6 7 3 4 1002.6 1001.0 0.0
24/02:00am 30.4 31.1 17.1 44 8.5 WSW 9 15 5 8 1002.6 1001.0 0.0
24/01:30am 32.0 30.4 15.9 38 10.1 WSW 19 30 10 16 1002.6 1001.0 0.0
24/01:00am 31.9 30.3 16.6 39 9.7 W 20 37 11 20 1002.6 1001.0 0.0
24/12:30am 29.9 32.8 19.9 55 6.6 NW 4 9 2 5 1002.9 1001.3 0.0
24/12:00am 29.7 32.6 21.1 60 5.8 NNW 7 11 4 6 1003.2 1001.6 0.0
 
Date/Time
WST
Temp
°C
App
Temp
°C
Dew
Point
°C
Rel
Hum
%
Delta-T
°C
Wind Press
QNH
hPa
Press
MSL
hPa
Rain since
9am
mm
Dir  Spd
km/h
Gust
km/h
Spd
kts
Gust
kts
23/11:30pm 29.9 33.6 20.7 57 6.1 ESE 2 4 1 2 1003.3 1001.7 0.0
23/11:00pm 30.6 33.6 20.8 56 6.6 N 6 15 3 8 1003.4 1001.8 0.0
23/10:30pm 31.1 33.7 20.4 53 7.1 WNW 7 17 4 9 1003.5 1001.9 0.0
23/10:00pm 31.7 32.6 20.0 50 7.8 WNW 15 28 8 15 1003.5 1001.9 0.0
23/09:30pm 32.5 31.4 18.7 44 9.0 WNW 22 35 12 19 1003.5 1001.9 0.0
23/09:00pm 33.1 32.1 18.8 42 9.4 WNW 22 33 12 18 1003.1 1001.5 0.0
23/08:30pm 33.8 34.0 20.6 46 8.9 NW 20 33 11 18 1002.7 1001.1 0.0
23/08:00pm 34.3 34.3 21.0 45 9.1 NW 22 33 12 18 1002.4 1000.8 0.0
23/07:37pm 35.5 35.1 19.0 37 10.9 NW 19 37 10 20 1002.0 1000.4 0.0
23/07:30pm 37.1 36.4 13.2 24 14.7 NW 9 13 5 7 1001.8 1000.2 0.0
23/07:00pm 37.4 36.6 12.8 23 15.1 NW 9 15 5 8 1001.7 1000.1 0.0
23/06:30pm 38.1 37.3 14.0 24 15.1 WNW 11 17 6 9 1001.5 999.9 0.0
23/06:00pm 39.0 37.5 14.1 23 15.7 WNW 15 20 8 11 1001.4 999.8 0.0
23/05:30pm 39.2 37.6 14.9 23 15.4 WNW 17 28 9 15 1001.2 999.6 0.0
23/05:00pm 39.2 37.6 14.9 23 15.5 W 17 30 9 16 1001.0 999.4 0.0
23/04:30pm 39.4 37.3 13.7 21 16.1 W 17 28 9 15 1000.9 999.3 0.0
23/04:00pm 39.4 38.0 14.4 22 15.8 W 15 26 8 14 1000.8 999.2 0.0
23/03:30pm 39.6 37.6 13.9 22 16.1 WSW 17 26 9 14 1000.9 999.3 0.0
23/03:00pm 39.1 37.8 14.8 23 15.5 WSW 15 22 8 12 1001.1 999.5 0.0
23/02:30pm 38.7 38.0 16.3 26 14.5 W 15 28 8 15 1001.3 999.7 0.0
23/02:00pm 38.1 37.4 16.4 27 14.1 WSW 15 26 8 14 1001.7 1000.1 0.0
23/01:30pm 38.1 37.9 17.5 30 13.5 W 15 26 8 14 1001.8 1000.2 0.0
23/01:00pm 37.4 37.3 17.9 31 12.9 W 15 26 8 14 1002.0 1000.4 0.0
23/12:30pm 36.3 36.6 17.9 33 12.1 SW 13 22 7 12 1002.3 1000.7 0.0
23/12:00pm 35.3 35.1 17.5 34 11.6 W 15 28 8 15 1002.7 1001.1 0.0
23/11:30am 35.7 36.6 18.3 35 11.4 W 11 22 6 12 1003.1 1001.5 0.0
23/11:00am 34.0 34.6 18.5 40 10.2 WNW 13 22 7 12 1003.5 1001.9 0.0
23/10:30am 33.4 35.7 19.5 44 9.2 WSW 6 11 3 6 1004.0 1002.4 0.0
23/10:00am 32.3 33.8 18.8 44 8.9 W 9 15 5 8 1004.3 1002.7 0.0
23/09:30am 30.9 33.0 18.9 48 7.8 SW 6 13 3 7 1004.5 1002.9 0.0
23/09:00am 29.9 32.0 19.3 53 7.0 S 7 13 4 7 1004.7 1003.1 0.0
23/08:30am 29.6 31.9 19.9 56 6.4 SSW 7 13 4 7 1004.6 1003.0 0.0
23/08:00am 28.4 30.2 19.6 59 5.8 SSW 9 13 5 7 1004.5 1002.9 0.0
23/07:30am 27.6 29.8 19.7 62 5.2 SW 7 13 4 7 1004.4 1002.8 0.0
23/07:00am 26.6 28.8 19.5 65 4.6 SSW 7 13 4 7 1004.1 1002.5 0.0
23/06:30am 25.8 28.1 19.4 67 4.2 SW 6 7 3 4 1003.8 1002.2 0.0
23/06:00am 24.8 27.1 19.4 72 3.5 S 6 9 3 5 1003.5 1001.9 0.0
23/05:30am 24.6 27.2 19.2 72 3.5 S 4 6 2 3 1003.0 1001.4 0.0
23/05:00am 24.6 26.2 19.2 72 3.5 SSE 9 15 5 8 1002.4 1000.8 0.0
23/04:30am 24.7 26.0 19.3 72 3.5 S 11 17 6 9 1002.4 1000.8 0.0
23/04:00am 24.9 27.0 19.3 71 3.6 SSW 7 13 4 7 1002.6 1001.0 0.0
23/03:30am 25.0 26.3 19.4 71 3.6 SSW 11 15 6 8 1002.5 1000.9 0.0
23/03:00am 25.2 26.1 19.3 70 3.8 SSW 13 20 7 11 1002.6 1001.0 0.0
23/02:30am 25.4 26.4 19.5 70 3.8 SSW 13 17 7 9 1002.4 1000.8 0.0
23/02:00am 25.6 27.0 19.5 69 4.0 SW 11 19 6 10 1002.4 1000.8 0.0
23/01:30am 25.8 27.1 19.4 67 4.2 SSW 11 15 6 8 1002.2 1000.6 0.0
23/01:00am 25.4 27.1 19.3 69 4.0 SSW 9 15 5 8 1002.3 1000.7 0.0
23/12:30am 25.4 26.7 19.3 69 3.9 S 11 17 6 9 1002.5 1000.9 0.0
23/12:00am 25.5 26.0 19.2 68 4.1 S 15 20 8 11 1002.8 1001.2 0.0
 
Date/Time
WST
Temp
°C
App
Temp
°C
Dew
Point
°C
Rel
Hum
%
Delta-T
°C
Wind Press
QNH
hPa
Press
MSL
hPa
Rain since
9am
mm
Dir  Spd
km/h
Gust
km/h
Spd
kts
Gust
kts
22/11:30pm 25.6 26.9 19.3 68 4.1 S 11 19 6 10 1003.2 1001.6 0.0
22/11:00pm 26.1 26.4 19.7 68 4.2 S 17 28 9 15 1003.1 1001.5 0.0
22/10:30pm 26.3 27.0 19.7 67 4.3 S 15 24 8 13 1003.2 1001.6 0.0

Other formats

Comma delimited format used in spreadsheet applications
http://www.bom.gov.au/fwo/IDW60801/IDW60801.95317.axf

JavaScript Object Notation format (JSON) in row-major order
http://www.bom.gov.au/fwo/IDW60801/IDW60801.95317.json

Data quality

Most of these data are generated automatically and are frequently updated. Quality checks on data are not normally performed. It is possible for incorrect values to appear. Refer to information at About Latest Weather Observations and please check the disclaimer before using these data.